Time;durP1;ratioP1;P1;durP2;ratioP2;P2;SDS_P1;SDS_P2;PMS_P1;PMS_P2;Temp;Humidity;BMP_temperature;BMP_pressure;BME280_temperature;BME280_humidity;BME280_pressure;Samples;Min_cycle;Max_cycle;Signal;HPM_P1;HPM_P2
2023/09/22 00:00:41;;;;;;;2.72;1.52;;;;;;;;;;5057316;28;20025;-20
2023/09/22 00:03:08;;;;;;;3.42;1.58;;;;;;;;;;5056953;28;20493;-22
2023/09/22 00:05:35;;;;;;;1.52;1.40;;;;;;;;;;5057497;28;20368;-26
2023/09/22 00:08:01;;;;;;;3.83;1.33;;;;;;;;;;5057023;28;20036;-19
2023/09/22 00:10:27;;;;;;;2.53;1.70;;;;;;;;;;5057305;28;20033;-20
2023/09/22 00:12:54;;;;;;;4.15;1.27;;;;;;;;;;5040098;28;20458;-21
2023/09/22 00:15:21;;;;;;;3.88;1.40;;;;;;;;;;5057202;28;20033;-21
2023/09/22 00:17:47;;;;;;;2.70;1.38;;;;;;;;;;5056903;28;20100;-21
2023/09/22 00:20:15;;;;;;;3.40;1.25;;;;;;;;;;5056833;28;20025;-20
2023/09/22 00:22:44;;;;;;;5.32;1.52;;;;;;;;;;5056970;28;20345;-21
2023/09/22 00:25:10;;;;;;;6.45;2.20;;;;;;;;;;5056757;28;20025;-18
2023/09/22 00:27:37;;;;;;;1.60;1.50;;;;;;;;;;5057008;28;20053;-18
2023/09/22 00:30:04;;;;;;;7.35;1.73;;;;;;;;;;5056691;28;20025;-20
2023/09/22 00:32:30;;;;;;;2.30;1.73;;;;;;;;;;5056563;28;20032;-21
2023/09/22 00:34:56;;;;;;;3.95;2.10;;;;;;;;;;5056880;28;20039;-22
2023/09/22 00:37:23;;;;;;;3.83;1.42;;;;;;;;;;5055309;28;20033;-18
2023/09/22 00:39:49;;;;;;;5.07;1.33;;;;;;;;;;5056438;28;20510;-18
2023/09/22 00:42:15;;;;;;;6.50;2.10;;;;;;;;;;5056444;28;20029;-21
2023/09/22 00:44:42;;;;;;;1.60;1.13;;;;;;;;;;5056454;28;20029;-21
2023/09/22 00:47:08;;;;;;;2.70;1.42;;;;;;;;;;5056905;28;20025;-20
2023/09/22 00:49:35;;;;;;;6.72;1.10;;;;;;;;;;5056396;28;20040;-19
2023/09/22 00:52:02;;;;;;;1.45;1.35;;;;;;;;;;5056492;28;20037;-19
2023/09/22 00:54:28;;;;;;;2.03;1.55;;;;;;;;;;5056225;28;20053;-22
2023/09/22 00:56:54;;;;;;;3.55;1.88;;;;;;;;;;5056458;28;20025;-22
2023/09/22 00:59:21;;;;;;;4.22;1.48;;;;;;;;;;5056092;28;20060;-20
2023/09/22 01:01:47;;;;;;;1.50;1.25;;;;;;;;;;5056289;28;20044;-20
2023/09/22 01:04:13;;;;;;;2.60;1.27;;;;;;;;;;5055919;28;20045;-21
2023/09/22 01:06:39;;;;;;;2.85;1.63;;;;;;;;;;5055990;28;20024;-27
2023/09/22 01:09:06;;;;;;;4.07;1.52;;;;;;;;;;5055956;28;20025;-19
2023/09/22 01:11:34;;;;;;;2.20;1.20;;;;;;;;;;5055921;28;20028;-19
2023/09/22 01:14:00;;;;;;;1.42;1.17;;;;;;;;;;5056039;28;20356;-20
2023/09/22 01:16:26;;;;;;;2.67;1.65;;;;;;;;;;5055799;28;20017;-19
2023/09/22 01:18:53;;;;;;;6.28;2.03;;;;;;;;;;5055945;28;20321;-18
2023/09/22 01:21:19;;;;;;;1.85;1.20;;;;;;;;;;5055988;28;20039;-20
2023/09/22 01:23:45;;;;;;;2.42;1.38;;;;;;;;;;5038306;28;20468;-20
2023/09/22 01:26:11;;;;;;;2.58;1.10;;;;;;;;;;5055576;28;20032;-22
2023/09/22 01:28:37;;;;;;;4.18;2.22;;;;;;;;;;5055597;28;20103;-22
2023/09/22 01:31:03;;;;;;;2.55;1.80;;;;;;;;;;5055510;28;20025;-22
2023/09/22 01:33:29;;;;;;;1.50;1.40;;;;;;;;;;5055334;28;20045;-21
2023/09/22 01:35:56;;;;;;;2.53;1.50;;;;;;;;;;5055949;28;20029;-20
2023/09/22 01:38:23;;;;;;;4.13;1.48;;;;;;;;;;5037853;28;20461;-18
2023/09/22 01:40:49;;;;;;;1.08;1.00;;;;;;;;;;5055192;28;20040;-19
2023/09/22 01:43:17;;;;;;;2.08;1.33;;;;;;;;;;5055254;28;20090;-18
2023/09/22 01:45:43;;;;;;;3.88;1.52;;;;;;;;;;5056301;28;20037;-20
2023/09/22 01:48:11;;;;;;;1.80;1.45;;;;;;;;;;5055076;28;20021;-21
2023/09/22 01:50:41;;;;;;;1.80;1.58;;;;;;;;;;5055704;28;20025;-18
2023/09/22 01:53:08;;;;;;;1.97;1.10;;;;;;;;;;5055352;28;20033;-20
2023/09/22 01:55:35;;;;;;;3.47;1.40;;;;;;;;;;5055395;28;20463;-22
2023/09/22 01:58:01;;;;;;;1.88;1.33;;;;;;;;;;5055041;28;20017;-20
2023/09/22 02:00:27;;;;;;;2.10;1.27;;;;;;;;;;5055188;28;20104;-20
2023/09/22 02:02:54;;;;;;;3.20;1.50;;;;;;;;;;5054926;28;20025;-20
2023/09/22 02:05:20;;;;;;;3.17;1.58;;;;;;;;;;5054766;28;20472;-20
2023/09/22 02:07:46;;;;;;;2.20;1.27;;;;;;;;;;5054882;28;20139;-23
2023/09/22 02:10:13;;;;;;;2.35;1.45;;;;;;;;;;5055132;28;20025;-20
2023/09/22 02:12:46;;;;;;;1.45;1.35;;;;;;;;;;5054951;28;20110;-21
2023/09/22 02:15:13;;;;;;;1.95;1.75;;;;;;;;;;5054770;28;20406;-19
2023/09/22 02:17:41;;;;;;;1.45;1.30;;;;;;;;;;5054740;28;20021;-23
2023/09/22 02:20:17;;;;;;;2.22;1.55;;;;;;;;;;5054894;28;20356;-22
2023/09/22 02:22:45;;;;;;;2.83;1.35;;;;;;;;;;5054810;28;20444;-18
2023/09/22 02:25:12;;;;;;;3.30;1.52;;;;;;;;;;5054860;28;20037;-19
2023/09/22 02:27:38;;;;;;;2.78;1.23;;;;;;;;;;5055117;28;20071;-18
2023/09/22 02:30:04;;;;;;;1.23;1.05;;;;;;;;;;5054476;28;20090;-18
2023/09/22 02:32:30;;;;;;;4.90;2.03;;;;;;;;;;5054488;28;20025;-19
2023/09/22 02:34:57;;;;;;;1.52;1.25;;;;;;;;;;5054559;28;20029;-20
2023/09/22 02:37:24;;;;;;;1.23;1.00;;;;;;;;;;5054518;28;20024;-20
2023/09/22 02:39:50;;;;;;;3.20;1.50;;;;;;;;;;5054616;28;20386;-20
2023/09/22 02:42:17;;;;;;;1.65;1.15;;;;;;;;;;5054676;28;20348;-20
2023/09/22 02:44:43;;;;;;;2.00;1.50;;;;;;;;;;5054461;28;20326;-19
2023/09/22 02:47:09;;;;;;;1.35;1.23;;;;;;;;;;5054415;28;20021;-20
2023/09/22 02:49:35;;;;;;;3.08;1.73;;;;;;;;;;5054671;28;20104;-19
2023/09/22 02:52:02;;;;;;;1.27;1.17;;;;;;;;;;5054790;28;20411;-21
2023/09/22 02:54:29;;;;;;;1.75;1.33;;;;;;;;;;5054264;28;20452;-20
2023/09/22 02:56:55;;;;;;;1.83;1.40;;;;;;;;;;5054314;28;20033;-19
2023/09/22 02:59:22;;;;;;;3.25;1.30;;;;;;;;;;5054222;28;20025;-18
2023/09/22 03:01:49;;;;;;;1.70;1.10;;;;;;;;;;5057417;28;20083;-17
2023/09/22 03:04:15;;;;;;;1.48;1.30;;;;;;;;;;5058195;28;20471;-19
2023/09/22 03:06:42;;;;;;;1.35;1.10;;;;;;;;;;5058582;28;20029;-18
2023/09/22 03:09:09;;;;;;;1.08;1.00;;;;;;;;;;5058252;28;20333;-19
2023/09/22 03:11:38;;;;;;;2.33;1.20;;;;;;;;;;5058104;28;20033;-24
2023/09/22 03:14:05;;;;;;;3.08;1.30;;;;;;;;;;5058080;28;20367;-21
2023/09/22 03:16:32;;;;;;;2.20;1.50;;;;;;;;;;5058020;28;20526;-23
2023/09/22 03:18:58;;;;;;;1.73;1.55;;;;;;;;;;5058194;28;20063;-22
2023/09/22 03:21:25;;;;;;;1.98;1.40;;;;;;;;;;5058211;28;20210;-21
2023/09/22 03:23:52;;;;;;;2.67;0.82;;;;;;;;;;5057949;28;20028;-21
2023/09/22 03:26:18;;;;;;;2.45;1.17;;;;;;;;;;5057923;28;20025;-21
2023/09/22 03:28:44;;;;;;;2.00;1.25;;;;;;;;;;5057890;28;20454;-21
2023/09/22 03:31:10;;;;;;;1.70;1.10;;;;;;;;;;5058042;28;20025;-21
2023/09/22 03:33:40;;;;;;;1.20;1.10;;;;;;;;;;5057793;28;20515;-19
2023/09/22 03:36:10;;;;;;;2.08;1.17;;;;;;;;;;5040167;28;20040;-20
2023/09/22 03:38:36;;;;;;;5.03;1.17;;;;;;;;;;5057869;28;20363;-21
2023/09/22 03:41:02;;;;;;;1.23;1.10;;;;;;;;;;5057801;28;20443;-20
2023/09/22 03:43:29;;;;;;;1.95;1.85;;;;;;;;;;5057500;28;20090;-23
2023/09/22 03:45:55;;;;;;;3.38;1.40;;;;;;;;;;5057761;28;20021;-19
2023/09/22 03:48:22;;;;;;;2.13;1.25;;;;;;;;;;5057747;28;20021;-19
2023/09/22 03:50:48;;;;;;;2.67;1.05;;;;;;;;;;5040199;28;20039;-18
2023/09/22 03:53:15;;;;;;;1.25;1.15;;;;;;;;;;5057298;28;20116;-19
2023/09/22 03:55:41;;;;;;;2.53;1.58;;;;;;;;;;5039752;28;20082;-19
2023/09/22 03:58:07;;;;;;;3.33;1.55;;;;;;;;;;5057172;28;20025;-22
2023/09/22 04:00:34;;;;;;;1.77;1.67;;;;;;;;;;5057116;28;20460;-21
2023/09/22 04:03:00;;;;;;;1.73;1.63;;;;;;;;;;5057733;28;20025;-22
2023/09/22 04:05:26;;;;;;;2.10;1.13;;;;;;;;;;5056964;28;20041;-22
2023/09/22 04:07:54;;;;;;;5.25;1.35;;;;;;;;;;5057321;28;20096;-21
2023/09/22 04:10:20;;;;;;;1.52;1.15;;;;;;;;;;5057322;28;20033;-20
2023/09/22 04:12:46;;;;;;;1.45;1.35;;;;;;;;;;5056531;28;20096;-23
2023/09/22 04:15:13;;;;;;;2.05;1.65;;;;;;;;;;5057273;28;20029;-20
2023/09/22 04:17:39;;;;;;;1.45;1.30;;;;;;;;;;5056797;28;20029;-20
2023/09/22 04:20:07;;;;;;;1.83;1.17;;;;;;;;;;5056577;28;20025;-21
2023/09/22 04:22:34;;;;;;;1.83;1.27;;;;;;;;;;5038997;28;20025;-22
2023/09/22 04:25:02;;;;;;;1.88;1.67;;;;;;;;;;5057456;28;20387;-21
2023/09/22 04:27:32;;;;;;;1.65;1.02;;;;;;;;;;5057094;28;20029;-20
2023/09/22 04:30:03;;;;;;;1.40;1.30;;;;;;;;;;5056400;28;20111;-24
2023/09/22 04:32:33;;;;;;;2.85;1.15;;;;;;;;;;5038644;28;20363;-18
2023/09/22 04:35:00;;;;;;;3.58;1.05;;;;;;;;;;5056541;28;20020;-20
2023/09/22 04:37:26;;;;;;;3.25;1.25;;;;;;;;;;5056463;28;20068;-20
2023/09/22 04:39:54;;;;;;;1.88;1.23;;;;;;;;;;5056627;28;20029;-22
2023/09/22 04:42:22;;;;;;;1.08;1.08;;;;;;;;;;5056311;28;20428;-22
2023/09/22 04:44:51;;;;;;;1.65;1.10;;;;;;;;;;5056199;28;20337;-19
2023/09/22 04:47:18;;;;;;;1.60;1.30;;;;;;;;;;5056235;28;20032;-21
2023/09/22 04:49:44;;;;;;;2.28;1.50;;;;;;;;;;5055987;28;20064;-20
2023/09/22 04:52:10;;;;;;;1.67;1.40;;;;;;;;;;5056206;28;20025;-21
2023/09/22 04:54:37;;;;;;;1.17;1.08;;;;;;;;;;5056352;28;20029;-22
2023/09/22 04:57:03;;;;;;;1.67;1.17;;;;;;;;;;5055989;28;20482;-20
2023/09/22 04:59:29;;;;;;;1.40;1.10;;;;;;;;;;5056157;28;20036;-20
2023/09/22 05:01:59;;;;;;;4.80;1.33;;;;;;;;;;5055725;28;20047;-20
2023/09/22 05:04:25;;;;;;;2.97;1.00;;;;;;;;;;5055865;28;20372;-20
2023/09/22 05:06:52;;;;;;;1.17;1.08;;;;;;;;;;5056095;28;20075;-23
2023/09/22 05:09:18;;;;;;;2.10;1.55;;;;;;;;;;5056004;28;20028;-23
2023/09/22 05:11:44;;;;;;;1.95;1.50;;;;;;;;;;5055681;28;20082;-24
2023/09/22 05:14:10;;;;;;;3.55;1.20;;;;;;;;;;5055591;28;20364;-22
2023/09/22 05:16:37;;;;;;;4.88;1.38;;;;;;;;;;5055887;28;20036;-21
2023/09/22 05:19:03;;;;;;;2.38;1.27;;;;;;;;;;5055802;28;20099;-21
2023/09/22 05:21:30;;;;;;;3.60;1.38;;;;;;;;;;5055414;28;20020;-21
2023/09/22 05:23:56;;;;;;;2.13;1.13;;;;;;;;;;5054730;28;20513;-21
2023/09/22 05:26:22;;;;;;;1.67;1.23;;;;;;;;;;5055447;28;20032;-20
2023/09/22 05:28:49;;;;;;;2.05;1.25;;;;;;;;;;5055228;28;20021;-21
2023/09/22 05:31:16;;;;;;;1.92;1.38;;;;;;;;;;5055182;28;20082;-23
2023/09/22 05:33:43;;;;;;;3.55;1.30;;;;;;;;;;5055010;28;20032;-18
2023/09/22 05:36:10;;;;;;;2.63;1.25;;;;;;;;;;5055362;28;20049;-18
2023/09/22 05:38:36;;;;;;;2.58;1.23;;;;;;;;;;5055609;28;20025;-19
2023/09/22 05:41:03;;;;;;;1.10;1.00;;;;;;;;;;5054939;28;20057;-21
2023/09/22 05:43:31;;;;;;;1.77;1.38;;;;;;;;;;5055043;28;20101;-20
2023/09/22 05:45:57;;;;;;;1.67;1.15;;;;;;;;;;5055164;28;20107;-18
2023/09/22 05:48:23;;;;;;;2.47;1.23;;;;;;;;;;5055427;28;20024;-19
2023/09/22 05:51:00;;;;;;;2.03;0.98;;;;;;;;;;5055103;28;20024;-22
2023/09/22 05:53:27;;;;;;;2.30;1.60;;;;;;;;;;5037024;28;20517;-20
2023/09/22 05:56:02;;;;;;;2.35;1.23;;;;;;;;;;5054607;28;20041;-19
2023/09/22 05:58:29;;;;;;;3.13;1.08;;;;;;;;;;5054778;28;20406;-22
2023/09/22 06:00:57;;;;;;;5.03;1.40;;;;;;;;;;5036906;28;20464;-22
2023/09/22 06:03:23;;;;;;;5.97;1.30;;;;;;;;;;5054497;28;20445;-18
2023/09/22 06:05:49;;;;;;;2.63;1.38;;;;;;;;;;5054806;28;20109;-20
2023/09/22 06:08:16;;;;;;;1.55;1.33;;;;;;;;;;5054333;28;20418;-21
2023/09/22 06:10:43;;;;;;;1.77;1.02;;;;;;;;;;5054675;28;20024;-24
2023/09/22 06:13:09;;;;;;;1.27;1.02;;;;;;;;;;5054849;28;20309;-20
2023/09/22 06:15:36;;;;;;;1.80;1.30;;;;;;;;;;5054553;28;20025;-19
2023/09/22 06:18:04;;;;;;;1.67;1.10;;;;;;;;;;5054900;28;20374;-20
2023/09/22 06:20:31;;;;;;;1.83;1.13;;;;;;;;;;5054977;28;20344;-21
2023/09/22 06:22:57;;;;;;;1.92;1.10;;;;;;;;;;5036818;28;20025;-18
2023/09/22 06:25:26;;;;;;;1.48;1.13;;;;;;;;;;5054771;28;20021;-20
2023/09/22 06:27:54;;;;;;;1.25;1.15;;;;;;;;;;5054386;28;20025;-24
2023/09/22 06:30:20;;;;;;;3.88;2.25;;;;;;;;;;5054445;28;20121;-21
2023/09/22 06:32:47;;;;;;;2.40;1.13;;;;;;;;;;5054409;28;20028;-23
2023/09/22 06:35:13;;;;;;;1.42;1.30;;;;;;;;;;5054157;28;20032;-19
2023/09/22 06:37:41;;;;;;;5.68;1.30;;;;;;;;;;5054299;28;20032;-21
2023/09/22 06:40:11;;;;;;;4.32;1.20;;;;;;;;;;5054307;28;20413;-19
2023/09/22 06:42:44;;;;;;;2.03;1.10;;;;;;;;;;5054193;28;20028;-20
2023/09/22 06:45:11;;;;;;;2.15;1.25;;;;;;;;;;5054764;28;20428;-20
2023/09/22 06:47:37;;;;;;;4.90;1.00;;;;;;;;;;5054131;28;20443;-22
2023/09/22 06:50:06;;;;;;;2.42;1.20;;;;;;;;;;5054856;28;20031;-18
2023/09/22 06:52:33;;;;;;;3.28;1.20;;;;;;;;;;5036853;28;20486;-18
2023/09/22 06:55:03;;;;;;;3.20;1.23;;;;;;;;;;5053842;28;20029;-19
2023/09/22 06:57:29;;;;;;;3.40;1.70;;;;;;;;;;5054191;28;20055;-20
2023/09/22 06:59:56;;;;;;;4.82;1.50;;;;;;;;;;5054008;28;20033;-21
2023/09/22 07:02:22;;;;;;;5.65;1.17;;;;;;;;;;5054161;28;20033;-21
2023/09/22 07:04:48;;;;;;;4.40;1.40;;;;;;;;;;5022561;28;20042;-24
2023/09/22 07:07:14;;;;;;;2.58;1.48;;;;;;;;;;5033980;28;20032;-19
2023/09/22 07:09:44;;;;;;;4.35;1.30;;;;;;;;;;5034265;28;20329;-22
2023/09/22 07:12:10;;;;;;;1.63;1.27;;;;;;;;;;5016948;28;20101;-20
2023/09/22 07:14:36;;;;;;;4.45;1.20;;;;;;;;;;5016670;28;20103;-22
2023/09/22 07:17:05;;;;;;;2.05;1.10;;;;;;;;;;5034268;28;20044;-17
2023/09/22 07:19:34;;;;;;;3.47;1.80;;;;;;;;;;5016477;28;20037;-20
2023/09/22 07:22:00;;;;;;;3.25;1.05;;;;;;;;;;5033984;28;20048;-21
2023/09/22 07:24:27;;;;;;;3.75;1.52;;;;;;;;;;5016321;28;20437;-21
2023/09/22 07:26:54;;;;;;;5.28;1.17;;;;;;;;;;5034098;28;20072;-20
2023/09/22 07:29:21;;;;;;;3.03;1.27;;;;;;;;;;5033663;28;20037;-20
2023/09/22 07:31:47;;;;;;;3.45;1.60;;;;;;;;;;5034008;28;20030;-21
2023/09/22 07:34:13;;;;;;;1.75;1.23;;;;;;;;;;5034355;28;20129;-16
2023/09/22 07:36:40;;;;;;;5.75;1.48;;;;;;;;;;5034078;28;20021;-19
2023/09/22 07:39:09;;;;;;;1.33;1.20;;;;;;;;;;5034037;28;20049;-19
2023/09/22 07:41:36;;;;;;;2.08;1.05;;;;;;;;;;5033823;28;20025;-22
2023/09/22 07:44:04;;;;;;;2.13;1.10;;;;;;;;;;5033981;28;20029;-19
2023/09/22 07:46:30;;;;;;;2.97;1.38;;;;;;;;;;5034767;28;20029;-19
2023/09/22 07:48:56;;;;;;;4.25;1.70;;;;;;;;;;5037755;28;20453;-21
2023/09/22 07:51:22;;;;;;;5.07;1.85;;;;;;;;;;5037367;28;20040;-22
2023/09/22 07:53:49;;;;;;;2.95;1.52;;;;;;;;;;5037529;28;20025;-22
2023/09/22 07:56:18;;;;;;;3.15;1.52;;;;;;;;;;5037386;28;20341;-17
2023/09/22 07:58:44;;;;;;;1.50;1.20;;;;;;;;;;5037165;28;20499;-21
2023/09/22 08:01:16;;;;;;;1.25;1.10;;;;;;;;;;5037295;28;20402;-21
2023/09/22 08:03:43;;;;;;;1.88;1.73;;;;;;;;;;5036817;28;20052;-20
2023/09/22 08:06:11;;;;;;;4.32;1.33;;;;;;;;;;5037607;28;20065;-21
2023/09/22 08:08:37;;;;;;;2.53;1.35;;;;;;;;;;5037056;28;20037;-23
2023/09/22 08:11:04;;;;;;;1.77;1.10;;;;;;;;;;5037572;28;20048;-19
2023/09/22 08:13:33;;;;;;;2.00;1.02;;;;;;;;;;5036958;28;20095;-22
2023/09/22 08:15:59;;;;;;;3.60;1.45;;;;;;;;;;5037249;28;20032;-22
2023/09/22 08:18:26;;;;;;;2.95;1.63;;;;;;;;;;5036813;28;20045;-21
2023/09/22 08:20:53;;;;;;;3.83;1.08;;;;;;;;;;5036463;28;20025;-23
2023/09/22 08:23:20;;;;;;;3.00;1.23;;;;;;;;;;5036447;28;20032;-19
2023/09/22 08:25:49;;;;;;;3.38;1.50;;;;;;;;;;5036853;28;20079;-22
2023/09/22 08:28:15;;;;;;;5.72;1.48;;;;;;;;;;5036477;28;20037;-24
2023/09/22 08:30:41;;;;;;;2.05;1.40;;;;;;;;;;5019023;28;20467;-18
2023/09/22 08:33:08;;;;;;;4.40;1.08;;;;;;;;;;5036480;28;20029;-17
2023/09/22 08:35:34;;;;;;;3.65;1.40;;;;;;;;;;5036202;28;20464;-21
2023/09/22 08:38:02;;;;;;;2.92;1.30;;;;;;;;;;5036182;28;20464;-20
2023/09/22 08:40:29;;;;;;;3.85;1.20;;;;;;;;;;5036190;28;20029;-20
2023/09/22 08:42:56;;;;;;;4.32;1.27;;;;;;;;;;5036107;28;20387;-21
2023/09/22 08:45:22;;;;;;;8.20;1.77;;;;;;;;;;5036174;28;20043;-18
2023/09/22 08:47:49;;;;;;;5.60;1.88;;;;;;;;;;5019251;28;20348;-17
2023/09/22 08:50:19;;;;;;;1.33;1.00;;;;;;;;;;5036162;28;20096;-21
2023/09/22 08:52:48;;;;;;;1.90;1.33;;;;;;;;;;5035775;28;20030;-21
2023/09/22 08:55:15;;;;;;;4.85;1.30;;;;;;;;;;5036175;28;20029;-19
2023/09/22 08:57:44;;;;;;;4.45;1.70;;;;;;;;;;5035129;28;20037;-19
2023/09/22 09:00:20;;;;;;;6.60;1.65;;;;;;;;;;5017825;28;20033;-22
2023/09/22 09:02:51;;;;;;;9.70;2.75;;;;;;;;;;5035537;28;20032;-22
2023/09/22 09:05:31;;;;;;;5.28;1.98;;;;;;;;;;5035444;28;20058;-19
2023/09/22 09:08:10;;;;;;;9.57;2.53;;;;;;;;;;5018149;28;20072;-22
2023/09/22 09:10:36;;;;;;;9.48;2.13;;;;;;;;;;5036000;28;20021;-19
2023/09/22 09:13:03;;;;;;;14.50;2.10;;;;;;;;;;5035432;28;20333;-20
2023/09/22 09:15:31;;;;;;;4.10;1.70;;;;;;;;;;5035681;28;20395;-19
2023/09/22 09:18:04;;;;;;;3.92;1.40;;;;;;;;;;5035617;28;20021;-21
2023/09/22 09:20:40;;;;;;;2.78;1.35;;;;;;;;;;5035242;28;20025;-21
2023/09/22 09:23:16;;;;;;;11.48;2.13;;;;;;;;;;5035228;28;20075;-20
2023/09/22 09:25:47;;;;;;;10.93;2.28;;;;;;;;;;5035926;28;20394;-19
2023/09/22 09:28:15;;;;;;;6.22;1.65;;;;;;;;;;5035858;28;20033;-23
2023/09/22 09:31:01;;;;;;;5.43;1.60;;;;;;;;;;5035278;28;20026;-26
2023/09/22 09:33:34;;;;;;;4.82;1.30;;;;;;;;;;5035272;28;20040;-22
2023/09/22 09:36:14;;;;;;;2.53;1.48;;;;;;;;;;5035335;28;20052;-22
2023/09/22 09:38:42;;;;;;;2.38;1.65;;;;;;;;;;5017929;28;20022;-22
2023/09/22 09:41:10;;;;;;;10.23;1.85;;;;;;;;;;5017683;28;20033;-19
2023/09/22 09:43:37;;;;;;;4.70;1.30;;;;;;;;;;5035090;28;20052;-24
2023/09/22 09:46:05;;;;;;;5.25;1.65;;;;;;;;;;5035190;28;20408;-18
2023/09/22 09:48:37;;;;;;;6.22;2.15;;;;;;;;;;5035036;28;20051;-20
2023/09/22 09:51:04;;;;;;;2.97;1.05;;;;;;;;;;5017705;28;20026;-21
2023/09/22 09:53:37;;;;;;;3.03;1.40;;;;;;;;;;5017550;28;20052;-19
2023/09/22 09:56:05;;;;;;;1.58;1.45;;;;;;;;;;5035003;28;20067;-29
2023/09/22 09:58:32;;;;;;;6.60;1.45;;;;;;;;;;5017363;28;20025;-21
2023/09/22 10:00:59;;;;;;;4.13;1.60;;;;;;;;;;5034656;28;20043;-22
2023/09/22 10:03:25;;;;;;;6.20;1.40;;;;;;;;;;5034748;28;20084;-20
2023/09/22 10:05:53;;;;;;;8.35;2.15;;;;;;;;;;5035078;28;20081;-21
2023/09/22 10:08:20;;;;;;;4.00;1.38;;;;;;;;;;5017281;28;20512;-21
2023/09/22 10:10:50;;;;;;;3.28;1.65;;;;;;;;;;5034531;28;20086;-23
2023/09/22 10:13:17;;;;;;;3.00;1.50;;;;;;;;;;5034401;28;20025;-20
2023/09/22 10:16:03;;;;;;;7.22;1.80;;;;;;;;;;5034940;28;20052;-20
2023/09/22 10:18:47;;;;;;;3.83;1.40;;;;;;;;;;5034489;28;20065;-18
2023/09/22 10:21:29;;;;;;;3.95;1.20;;;;;;;;;;5034722;28;20351;-22
2023/09/22 10:24:14;;;;;;;4.43;1.20;;;;;;;;;;5034516;28;20036;-21
2023/09/22 10:26:55;;;;;;;4.40;1.95;;;;;;;;;;5000903;28;20357;-19
2023/09/22 10:29:36;;;;;;;14.48;1.92;;;;;;;;;;5034497;28;20101;-22
2023/09/22 10:32:21;;;;;;;3.88;1.23;;;;;;;;;;5034407;28;20025;-21
2023/09/22 10:34:47;;;;;;;2.10;1.58;;;;;;;;;;5035047;28;20080;-19
2023/09/22 10:37:18;;;;;;;5.45;1.40;;;;;;;;;;5034758;28;20041;-20
2023/09/22 10:39:52;;;;;;;3.78;1.42;;;;;;;;;;5034250;28;20433;-21
2023/09/22 10:42:20;;;;;;;6.60;1.63;;;;;;;;;;5034349;28;20400;-19
2023/09/22 10:45:00;;;;;;;8.40;1.30;;;;;;;;;;5034378;28;20029;-20
2023/09/22 10:47:27;;;;;;;3.75;1.90;;;;;;;;;;5034775;28;20025;-20
2023/09/22 10:49:54;;;;;;;5.38;1.80;;;;;;;;;;5034500;28;20022;-21
2023/09/22 10:52:20;;;;;;;6.68;1.70;;;;;;;;;;5034294;28;20064;-19
2023/09/22 10:54:47;;;;;;;3.60;1.55;;;;;;;;;;5034362;28;20021;-23
2023/09/22 10:57:23;;;;;;;5.70;1.35;;;;;;;;;;5034296;28;20082;-21
2023/09/22 10:59:49;;;;;;;10.85;2.33;;;;;;;;;;5034238;28;20460;-21
2023/09/22 11:02:26;;;;;;;4.50;2.20;;;;;;;;;;5034369;28;20040;-19
2023/09/22 11:04:53;;;;;;;7.00;1.65;;;;;;;;;;5034323;28;20052;-24
2023/09/22 11:07:33;;;;;;;4.07;1.38;;;;;;;;;;5034308;28;20021;-18
2023/09/22 11:10:00;;;;;;;4.75;1.90;;;;;;;;;;5034514;28;20026;-21
2023/09/22 11:12:27;;;;;;;7.50;1.90;;;;;;;;;;5034079;28;20033;-19
2023/09/22 11:14:53;;;;;;;6.70;1.92;;;;;;;;;;5034187;28;20053;-18
2023/09/22 11:17:21;;;;;;;5.57;1.98;;;;;;;;;;5034447;28;20107;-22
2023/09/22 11:20:15;;;;;;;6.10;1.48;;;;;;;;;;5034598;28;20029;-20
2023/09/22 11:22:41;;;;;;;6.60;2.42;;;;;;;;;;5035363;28;20395;-19
2023/09/22 11:25:11;;;;;;;10.38;2.10;;;;;;;;;;5020559;28;20119;-18
2023/09/22 11:27:45;;;;;;;5.65;1.80;;;;;;;;;;5038432;28;20017;-17
2023/09/22 11:30:14;;;;;;;3.13;1.42;;;;;;;;;;5038383;28;20171;-19
2023/09/22 11:32:43;;;;;;;4.10;1.50;;;;;;;;;;5037815;28;20080;-21
2023/09/22 11:35:09;;;;;;;7.68;1.40;;;;;;;;;;5037701;28;20104;-23
2023/09/22 11:37:35;;;;;;;7.00;1.60;;;;;;;;;;5037787;28;20049;-20
2023/09/22 11:40:13;;;;;;;6.18;1.45;;;;;;;;;;5037640;28;20408;-21
2023/09/22 11:42:39;;;;;;;3.33;1.65;;;;;;;;;;5020690;28;20511;-19
2023/09/22 11:45:05;;;;;;;4.03;1.35;;;;;;;;;;5037830;28;20030;-21
2023/09/22 11:47:31;;;;;;;3.22;1.27;;;;;;;;;;5037562;28;20018;-21
2023/09/22 11:49:57;;;;;;;2.90;1.55;;;;;;;;;;5037742;28;20112;-20
2023/09/22 11:52:33;;;;;;;10.40;1.67;;;;;;;;;;5037419;28;20364;-21
2023/09/22 11:54:59;;;;;;;4.60;1.35;;;;;;;;;;5037716;28;20423;-24
2023/09/22 11:57:25;;;;;;;7.25;1.92;;;;;;;;;;5037636;28;20029;-20
2023/09/22 11:59:59;;;;;;;1.52;1.30;;;;;;;;;;5037341;28;20025;-20
2023/09/22 12:02:26;;;;;;;4.72;1.20;;;;;;;;;;5037212;28;20037;-21
2023/09/22 12:04:52;;;;;;;3.55;1.52;;;;;;;;;;5037126;28;20187;-22
2023/09/22 12:07:19;;;;;;;3.47;1.73;;;;;;;;;;5037217;28;20029;-20
2023/09/22 12:09:45;;;;;;;5.20;1.50;;;;;;;;;;5037416;28;20060;-22
2023/09/22 12:12:12;;;;;;;3.95;1.67;;;;;;;;;;5037103;28;20025;-21
2023/09/22 12:14:39;;;;;;;2.38;1.30;;;;;;;;;;5037128;28;20021;-19
2023/09/22 12:17:05;;;;;;;3.85;1.60;;;;;;;;;;5037256;28;20037;-21
2023/09/22 12:19:31;;;;;;;8.90;2.17;;;;;;;;;;5036801;28;20108;-18
2023/09/22 12:21:59;;;;;;;2.85;1.50;;;;;;;;;;5037356;28;20340;-19
2023/09/22 12:24:25;;;;;;;3.15;2.03;;;;;;;;;;5037050;28;20441;-19
2023/09/22 12:26:51;;;;;;;4.30;1.65;;;;;;;;;;5019264;28;20053;-19
2023/09/22 12:29:17;;;;;;;6.88;2.00;;;;;;;;;;5036714;28;20107;-21
2023/09/22 12:31:44;;;;;;;9.35;1.67;;;;;;;;;;5036641;28;20025;-24
2023/09/22 12:34:11;;;;;;;7.35;1.70;;;;;;;;;;5036335;28;20032;-21
2023/09/22 12:36:37;;;;;;;5.63;1.55;;;;;;;;;;5036591;28;20022;-20
2023/09/22 12:39:03;;;;;;;7.57;1.80;;;;;;;;;;5036437;28;20083;-18
2023/09/22 12:41:29;;;;;;;4.65;1.55;;;;;;;;;;5036303;28;20036;-20
2023/09/22 12:43:56;;;;;;;4.53;1.63;;;;;;;;;;5036206;28;20033;-21
2023/09/22 12:46:23;;;;;;;6.80;2.15;;;;;;;;;;5036391;28;20037;-20
2023/09/22 12:48:49;;;;;;;3.58;1.85;;;;;;;;;;5036408;28;20034;-21
2023/09/22 12:51:15;;;;;;;7.80;2.30;;;;;;;;;;5036565;28;20457;-20
2023/09/22 12:53:41;;;;;;;4.05;1.42;;;;;;;;;;5036341;28;20037;-21
2023/09/22 12:56:07;;;;;;;5.85;1.85;;;;;;;;;;5036239;28;20033;-18
2023/09/22 12:58:38;;;;;;;8.85;1.85;;;;;;;;;;5036712;28;20361;-18
2023/09/22 13:01:04;;;;;;;7.43;2.30;;;;;;;;;;5036452;28;20025;-19
2023/09/22 13:03:32;;;;;;;7.60;1.35;;;;;;;;;;5035904;28;20280;-17
2023/09/22 13:06:01;;;;;;;9.23;1.80;;;;;;;;;;5036079;28;20052;-20
2023/09/22 13:08:27;;;;;;;4.15;1.60;;;;;;;;;;5036330;28;20071;-19
2023/09/22 13:10:54;;;;;;;7.13;2.53;;;;;;;;;;5035879;28;20415;-21
2023/09/22 13:13:20;;;;;;;9.13;1.83;;;;;;;;;;5018160;28;20025;-19
2023/09/22 13:15:47;;;;;;;6.95;1.95;;;;;;;;;;5035920;28;20309;-21
2023/09/22 13:18:18;;;;;;;4.93;1.40;;;;;;;;;;5035595;28;20087;-22
2023/09/22 13:20:44;;;;;;;5.57;1.73;;;;;;;;;;5035336;28;20484;-22
2023/09/22 13:23:11;;;;;;;5.97;1.67;;;;;;;;;;5035531;28;20096;-21
2023/09/22 13:25:41;;;;;;;10.45;1.98;;;;;;;;;;5035852;28;20026;-24
2023/09/22 13:28:07;;;;;;;4.97;1.50;;;;;;;;;;5018155;28;20559;-22
2023/09/22 13:30:35;;;;;;;6.90;2.15;;;;;;;;;;5035778;28;20475;-23
2023/09/22 13:33:01;;;;;;;7.78;2.03;;;;;;;;;;5018076;28;20032;-21
2023/09/22 13:35:28;;;;;;;4.13;1.50;;;;;;;;;;5035905;28;20033;-23
2023/09/22 13:37:54;;;;;;;9.23;1.70;;;;;;;;;;5035817;28;20353;-19
2023/09/22 13:40:21;;;;;;;5.95;1.60;;;;;;;;;;5035323;28;20033;-21
2023/09/22 13:42:47;;;;;;;4.32;1.60;;;;;;;;;;5035081;28;20087;-25
2023/09/22 13:45:13;;;;;;;2.88;1.00;;;;;;;;;;5034649;28;20049;-22
2023/09/22 13:47:39;;;;;;;2.95;1.58;;;;;;;;;;5017511;28;20057;-21
2023/09/22 13:50:06;;;;;;;3.17;1.48;;;;;;;;;;5034847;28;20100;-21
2023/09/22 13:52:32;;;;;;;4.43;1.52;;;;;;;;;;5035873;28;20464;-19
2023/09/22 13:54:58;;;;;;;3.88;1.77;;;;;;;;;;5034560;28;20044;-20
2023/09/22 13:57:25;;;;;;;5.85;3.53;;;;;;;;;;5034603;28;20063;-23
2023/09/22 13:59:54;;;;;;;5.35;1.42;;;;;;;;;;5034548;28;20037;-18
2023/09/22 14:02:20;;;;;;;10.23;1.60;;;;;;;;;;5034959;28;20025;-22
2023/09/22 14:04:47;;;;;;;4.45;1.50;;;;;;;;;;5034514;28;20080;-21
2023/09/22 14:07:13;;;;;;;4.30;1.48;;;;;;;;;;5034992;28;20034;-31
2023/09/22 14:09:39;;;;;;;8.38;1.60;;;;;;;;;;5035322;28;20326;-19
2023/09/22 14:12:06;;;;;;;3.55;1.40;;;;;;;;;;5034655;28;20108;-19
2023/09/22 14:14:32;;;;;;;4.05;1.77;;;;;;;;;;5034716;28;20037;-18
2023/09/22 14:16:59;;;;;;;2.70;1.50;;;;;;;;;;5034784;28;20029;-19
2023/09/22 14:19:25;;;;;;;3.83;1.30;;;;;;;;;;5017090;28;20112;-20
2023/09/22 14:21:51;;;;;;;6.65;1.45;;;;;;;;;;5034775;28;20028;-20
2023/09/22 14:24:18;;;;;;;2.90;1.73;;;;;;;;;;5034564;28;20021;-22
2023/09/22 14:26:45;;;;;;;5.97;2.00;;;;;;;;;;5034821;28;20175;-22
2023/09/22 14:29:11;;;;;;;4.43;1.73;;;;;;;;;;5034465;28;20025;-20
2023/09/22 14:31:37;;;;;;;3.10;1.35;;;;;;;;;;5016741;28;20490;-20
2023/09/22 14:34:04;;;;;;;5.78;1.70;;;;;;;;;;5034027;28;20036;-22
2023/09/22 14:36:30;;;;;;;4.78;1.60;;;;;;;;;;5016712;28;20097;-18
2023/09/22 14:38:57;;;;;;;5.43;1.85;;;;;;;;;;5034381;28;20030;-18
2023/09/22 14:41:23;;;;;;;4.90;1.27;;;;;;;;;;5016909;28;20038;-19
2023/09/22 14:43:49;;;;;;;2.33;1.98;;;;;;;;;;5034432;28;20025;-19
2023/09/22 14:46:15;;;;;;;3.70;2.15;;;;;;;;;;5034647;28;20030;-22